Time;durP1;ratioP1;P1;durP2;ratioP2;P2;SDS_P1;SDS_P2;PMS_P1;PMS_P2;Temp;Humidity;BMP_temperature;BMP_pressure;BME280_temperature;BME280_humidity;BME280_pressure;Samples;Min_cycle;Max_cycle;Signal;HPM_P1;HPM_P2
2024/02/08 00:00:37;;;;;;;2.78;1.65;;;;;;;9.06;100.00;99787.53;4856635;29;20053;-72
2024/02/08 00:03:07;;;;;;;0.20;0.20;;;;;;;8.51;100.00;99697.91;4872673;29;20060;-72
2024/02/08 00:05:33;;;;;;;0.20;0.20;;;;;;;8.59;100.00;99707.50;4867491;29;20108;-72
2024/02/08 00:07:58;;;;;;;0.32;0.32;;;;;;;9.06;100.00;99774.44;4869676;29;20825;-72
2024/02/08 00:10:24;;;;;;;2.80;2.25;;;;;;;9.15;100.00;99789.22;4869748;29;20144;-72
2024/02/08 00:12:50;;;;;;;0.20;0.20;;;;;;;8.52;100.00;99684.84;4871682;29;20397;-71
2024/02/08 00:15:16;;;;;;;2.63;2.30;;;;;;;8.45;100.00;99676.16;4872272;29;20064;-72
2024/02/08 00:17:41;;;;;;;0.73;0.73;;;;;;;8.99;100.00;99772.75;4871803;29;20049;-72
2024/02/08 00:20:07;;;;;;;0.47;0.47;;;;;;;8.93;100.00;99758.81;4874589;29;20055;-71
2024/02/08 00:22:33;;;;;;;1.48;1.38;;;;;;;8.48;100.00;99667.44;4870839;29;20482;-71
2024/02/08 00:25:00;;;;;;;0.50;0.50;;;;;;;9.11;100.00;99773.53;4867217;29;20052;-71
2024/02/08 00:27:26;;;;;;;2.53;1.60;;;;;;;9.00;100.00;99771.84;4865250;29;20041;-72
2024/02/08 00:29:51;;;;;;;3.17;2.28;;;;;;;8.92;100.00;99763.16;4866611;29;20048;-72
2024/02/08 00:32:17;;;;;;;1.48;1.38;;;;;;;8.99;100.00;99791.06;4870158;29;20092;-72
2024/02/08 00:34:42;;;;;;;0.57;0.57;;;;;;;9.06;100.00;99781.41;4871949;29;20049;-71
2024/02/08 00:37:08;;;;;;;0.40;0.40;;;;;;;9.11;100.00;99787.50;4873169;29;20446;-72
2024/02/08 00:39:34;;;;;;;1.13;1.08;;;;;;;9.01;100.00;99763.13;4871483;29;20565;-71
2024/02/08 00:41:59;;;;;;;0.52;0.52;;;;;;;8.91;100.00;99750.94;4869915;29;20430;-72
2024/02/08 00:44:27;;;;;;;0.30;0.30;;;;;;;8.93;100.00;99782.34;4867321;29;20565;-72
2024/02/08 00:46:56;;;;;;;1.15;1.15;;;;;;;8.47;100.00;99686.59;4868425;29;20466;-71
2024/02/08 00:49:23;;;;;;;2.55;1.85;;;;;;;8.80;100.00;99764.09;4851281;29;20076;-72
2024/02/08 00:51:49;;;;;;;0.50;0.50;;;;;;;8.47;100.00;99707.50;4870168;29;21408;-71
2024/02/08 00:54:18;;;;;;;14.40;3.78;;;;;;;8.36;100.00;99689.22;4869474;29;20124;-71
2024/02/08 00:56:43;;;;;;;1.02;0.95;;;;;;;8.25;100.00;99670.94;4869553;29;20071;-71
2024/02/08 00:59:09;;;;;;;0.50;0.50;;;;;;;8.62;100.00;99751.06;4864910;29;20049;-71
2024/02/08 01:01:36;;;;;;;0.45;0.45;;;;;;;8.22;100.00;99673.56;4867917;29;20041;-71
2024/02/08 01:04:03;;;;;;;0.32;0.30;;;;;;;8.90;100.00;99764.03;4868804;29;20408;-71
2024/02/08 01:06:30;;;;;;;2.50;2.13;;;;;;;8.88;100.00;99779.75;4870621;29;20060;-70
2024/02/08 01:08:56;;;;;;;0.40;0.40;;;;;;;8.94;100.00;99757.91;4867355;29;20057;-71
2024/02/08 01:11:22;;;;;;;0.63;0.63;;;;;;;8.44;100.00;99673.53;4868316;29;20056;-71
2024/02/08 01:13:47;;;;;;;5.88;2.40;;;;;;;8.47;100.00;99673.50;4869425;29;20045;-71
2024/02/08 01:16:14;;;;;;;1.33;1.23;;;;;;;8.93;100.00;99771.88;4868390;29;20040;-71
2024/02/08 01:18:42;;;;;;;2.92;2.65;;;;;;;8.88;100.00;99743.97;4871830;29;20196;-71
2024/02/08 01:21:11;;;;;;;0.30;0.30;;;;;;;8.47;100.00;99670.03;4871252;29;20045;-71
2024/02/08 01:23:37;;;;;;;0.73;0.73;;;;;;;8.98;100.00;99772.72;4868169;29;20063;-71
2024/02/08 01:26:03;;;;;;;0.20;0.20;;;;;;;9.11;100.00;99773.53;4868470;29;20052;-71
2024/02/08 01:28:29;;;;;;;1.65;1.52;;;;;;;8.91;100.00;99756.19;4868632;29;20385;-71
2024/02/08 01:30:55;;;;;;;0.20;0.20;;;;;;;8.94;100.00;99757.91;4870597;29;20048;-72
2024/02/08 01:33:21;;;;;;;8.85;3.30;;;;;;;9.04;100.00;99759.63;4861186;29;20056;-70
2024/02/08 01:35:46;;;;;;;0.30;0.30;;;;;;;8.47;100.00;99681.34;4869914;29;20111;-71
2024/02/08 01:38:16;;;;;;;2.90;1.90;;;;;;;8.44;100.00;99674.41;4871012;29;20079;-72
2024/02/08 01:40:44;;;;;;;3.50;2.42;;;;;;;8.90;100.00;99770.16;4871289;29;20137;-71
2024/02/08 01:43:10;;;;;;;0.20;0.20;;;;;;;8.43;100.00;99667.44;4869843;29;20041;-72
2024/02/08 01:45:41;;;;;;;0.40;0.40;;;;;;;9.04;100.00;99772.72;4869083;29;20053;-71
2024/02/08 01:48:12;;;;;;;0.43;0.32;;;;;;;8.76;100.00;99712.66;4869301;29;20117;-71
2024/02/08 01:50:57;;;;;;;15.57;4.05;;;;;;;8.63;100.00;99690.88;4865487;29;20061;-71
2024/02/08 01:53:27;;;;;;;0.30;0.30;;;;;;;9.07;100.00;99776.19;4865686;29;20412;-72
2024/02/08 01:55:57;;;;;;;0.30;0.30;;;;;;;8.96;100.00;99759.63;4864181;29;20056;-72
2024/02/08 01:58:24;;;;;;;0.63;0.38;;;;;;;8.47;100.00;99663.06;4866428;29;20037;-72
2024/02/08 02:00:52;;;;;;;0.32;0.32;;;;;;;8.95;100.00;99781.47;4866849;29;20100;-72
2024/02/08 02:03:19;;;;;;;0.30;0.30;;;;;;;9.01;100.00;99785.78;4852995;29;20428;-71
2024/02/08 02:05:48;;;;;;;4.03;2.83;;;;;;;8.44;100.00;99697.94;4865967;29;20719;-71
2024/02/08 02:08:22;;;;;;;0.20;0.20;;;;;;;8.87;100.00;99785.84;4865600;29;20061;-71
2024/02/08 02:10:57;;;;;;;2.58;1.95;;;;;;;8.70;100.00;99761.50;4866807;29;20412;-74
2024/02/08 02:13:23;;;;;;;1.65;1.27;;;;;;;8.60;100.00;99786.81;4867654;29;20532;-72
2024/02/08 02:15:51;;;;;;;0.20;0.20;;;;;;;8.62;100.00;99791.16;4866895;29;20041;-73
2024/02/08 02:18:17;;;;;;;1.00;1.00;;;;;;;8.19;100.00;99707.56;4867581;29;20457;-72
2024/02/08 02:20:43;;;;;;;2.47;2.28;;;;;;;8.04;100.00;99716.25;4867877;29;20461;-71
2024/02/08 02:23:09;;;;;;;0.88;0.88;;;;;;;8.38;100.00;99763.28;4848086;29;20192;-72
2024/02/08 02:25:38;;;;;;;0.47;0.47;;;;;;;8.49;100.00;99781.56;4862602;29;20093;-71
2024/02/08 02:28:07;;;;;;;0.38;0.38;;;;;;;8.45;100.00;99785.97;4854300;29;20049;-72
2024/02/08 02:30:35;;;;;;;4.55;3.85;;;;;;;8.55;100.00;99793.78;4868008;29;20430;-72
2024/02/08 02:33:03;;;;;;;20.27;1.38;;;;;;;8.40;100.00;99786.81;4867094;29;20592;-72
2024/02/08 02:35:29;;;;;;;1.40;1.25;;;;;;;8.57;100.00;99799.84;4866877;29;20478;-70
2024/02/08 02:38:02;;;;;;;0.30;0.30;;;;;;;8.02;100.00;99701.47;4867850;29;20093;-72
2024/02/08 02:40:30;;;;;;;1.98;1.88;;;;;;;7.81;100.00;99682.31;4869256;29;20041;-71
2024/02/08 02:42:56;;;;;;;0.57;0.50;;;;;;;8.41;100.00;99780.72;4871276;29;20184;-73
2024/02/08 02:45:23;;;;;;;0.30;0.30;;;;;;;7.86;100.00;99715.41;4875638;29;20060;-71
2024/02/08 02:47:50;;;;;;;2.85;2.60;;;;;;;8.39;100.00;99791.16;4878087;29;20048;-71
2024/02/08 02:50:18;;;;;;;0.68;0.68;;;;;;;8.36;100.00;99770.25;4872672;29;20060;-72
2024/02/08 02:52:46;;;;;;;0.30;0.30;;;;;;;8.32;100.00;99780.72;4869389;29;20108;-73
2024/02/08 02:55:12;;;;;;;0.50;0.50;;;;;;;7.79;100.00;99740.66;4870255;29;20040;-72
2024/02/08 02:57:38;;;;;;;0.50;0.50;;;;;;;7.53;100.00;99698.88;4853777;29;20056;-73
2024/02/08 03:00:20;;;;;;;2.33;2.13;;;;;;;8.24;100.00;99788.53;4868705;29;20992;-71
2024/02/08 03:02:48;;;;;;;0.30;0.30;;;;;;;8.37;100.00;99803.34;4871232;29;20528;-73
2024/02/08 03:05:14;;;;;;;2.60;2.40;;;;;;;8.20;100.00;99785.06;4873225;29;20057;-72
2024/02/08 03:07:42;;;;;;;0.20;0.20;;;;;;;8.32;100.00;99810.34;4872263;29;20339;-72
2024/02/08 03:10:11;;;;;;;4.03;3.42;;;;;;;7.71;100.00;99709.31;4872476;29;20072;-72
2024/02/08 03:12:38;;;;;;;0.20;0.20;;;;;;;7.89;100.00;99749.34;4873000;29;20135;-72
2024/02/08 03:15:08;;;;;;;1.25;1.20;;;;;;;7.70;100.00;99706.69;4872650;29;20452;-72
2024/02/08 03:17:38;;;;;;;0.30;0.30;;;;;;;7.62;100.00;99701.50;4868273;29;20123;-72
2024/02/08 03:20:32;;;;;;;7.47;3.20;;;;;;;8.30;100.00;99825.13;4870687;29;20064;-72
2024/02/08 03:22:58;;;;;;;3.55;2.35;;;;;;;8.22;100.00;99791.16;4865304;29;20045;-72
2024/02/08 03:25:24;;;;;;;1.00;0.95;;;;;;;7.54;100.00;99713.69;4872926;29;20100;-72
2024/02/08 03:27:52;;;;;;;0.20;0.20;;;;;;;8.33;100.00;99827.75;4869807;29;20048;-71
2024/02/08 03:30:30;;;;;;;1.10;1.00;;;;;;;7.52;100.00;99699.75;4854819;29;20450;-71
2024/02/08 03:32:59;;;;;;;0.45;0.43;;;;;;;7.74;100.00;99740.66;4874598;29;20055;-71
2024/02/08 03:35:29;;;;;;;0.30;0.30;;;;;;;8.11;100.00;99787.69;4873158;29;20049;-71
2024/02/08 03:37:56;;;;;;;3.38;2.50;;;;;;;8.16;100.00;99825.13;4852107;29;20057;-71
2024/02/08 03:40:25;;;;;;;1.67;1.58;;;;;;;7.90;100.00;99825.13;4872751;29;20040;-71
2024/02/08 03:42:53;;;;;;;0.50;0.50;;;;;;;8.12;100.00;99826.00;4876784;29;20066;-70
2024/02/08 03:45:23;;;;;;;0.50;0.50;;;;;;;8.17;100.00;99810.31;4878596;29;20501;-70
2024/02/08 03:47:52;;;;;;;0.30;0.30;;;;;;;8.13;100.00;99822.53;4874153;29;20057;-72
2024/02/08 03:50:19;;;;;;;0.38;0.38;;;;;;;7.81;100.00;99749.38;4870009;29;20048;-72
2024/02/08 03:52:44;;;;;;;3.55;3.03;;;;;;;8.13;100.00;99799.00;4868710;29;20076;-72
2024/02/08 03:55:13;;;;;;;0.25;0.25;;;;;;;8.31;100.00;99819.06;4873528;29;20492;-73
2024/02/08 03:57:39;;;;;;;0.38;0.38;;;;;;;8.04;100.00;99806.84;4872403;29;20086;-71
2024/02/08 04:00:13;;;;;;;0.95;0.95;;;;;;;8.07;100.00;99825.13;4870826;29;20053;-71
2024/02/08 04:02:43;;;;;;;8.75;3.72;;;;;;;8.10;100.00;99830.38;4869150;29;20041;-70
2024/02/08 04:05:19;;;;;;;0.30;0.30;;;;;;;7.58;100.00;99744.13;4871137;29;20045;-72
2024/02/08 04:07:56;;;;;;;1.02;1.02;;;;;;;7.38;100.00;99720.63;4872523;29;20531;-72
2024/02/08 04:54:09;;;;;;;5.97;3.80;;;;;;;7.71;100.00;99854.69;4868239;29;20052;-71
2024/02/08 04:56:35;;;;;;;0.30;0.30;;;;;;;7.20;100.00;99757.97;4870682;29;20073;-71
2024/02/08 04:59:05;;;;;;;0.57;0.57;;;;;;;7.53;100.00;99821.56;4868052;29;20057;-72
2024/02/08 05:01:31;;;;;;;0.40;0.40;;;;;;;7.78;100.00;99853.84;4868644;29;20079;-72
2024/02/08 05:03:59;;;;;;;0.30;0.30;;;;;;;7.70;100.00;99863.38;4870403;29;20140;-71
2024/02/08 05:06:25;;;;;;;9.93;6.43;;;;;;;7.47;100.00;99837.19;4864303;29;20143;-71
2024/02/08 05:08:57;;;;;;;0.90;0.90;;;;;;;7.43;100.00;99832.84;4848433;29;20056;-71
2024/02/08 05:11:24;;;;;;;0.40;0.40;;;;;;;7.19;100.00;99796.22;4865823;29;20139;-71
2024/02/08 05:13:50;;;;;;;0.40;0.40;;;;;;;7.04;100.00;99761.38;4863814;29;20037;-72
2024/02/08 05:16:17;;;;;;;3.60;3.30;;;;;;;7.59;100.00;99858.13;4866033;29;20048;-71
2024/02/08 05:18:44;;;;;;;3.50;3.15;;;;;;;6.21;100.00;99620.28;4868012;29;20053;-71
2024/02/08 05:21:10;;;;;;;2.33;2.13;;;;;;;7.72;100.00;99867.72;4866584;29;20061;-73
2024/02/08 05:23:40;;;;;;;0.22;0.22;;;;;;;7.40;100.00;99821.53;4863917;29;20500;-71
2024/02/08 05:26:10;;;;;;;1.67;1.58;;;;;;;7.78;100.00;99867.75;4867313;29;20128;-72
2024/02/08 05:28:37;;;;;;;1.90;1.80;;;;;;;7.64;100.00;99866.00;4866110;29;20239;-71
2024/02/08 05:31:06;;;;;;;0.73;0.73;;;;;;;7.75;100.00;99875.59;4868595;29;20054;-71
2024/02/08 05:33:32;;;;;;;24.60;19.95;;;;;;;6.95;100.00;99780.47;4849702;29;20166;-71
2024/02/08 05:35:59;;;;;;;0.35;0.35;;;;;;;6.89;100.00;99751.78;4868810;29;20523;-73
2024/02/08 05:38:25;;;;;;;0.35;0.35;;;;;;;7.60;100.00;99859.88;4868127;29;20135;-72
2024/02/08 05:40:51;;;;;;;0.20;0.20;;;;;;;7.17;100.00;99784.91;4867309;29;20156;-71
2024/02/08 05:43:27;;;;;;;1.25;1.17;;;;;;;7.05;100.00;99770.97;4854158;29;20037;-71
2024/02/08 05:45:53;;;;;;;3.00;2.83;;;;;;;7.53;100.00;99884.22;4850734;29;20065;-71
2024/02/08 05:48:19;;;;;;;0.30;0.30;;;;;;;7.04;100.00;99784.84;4865164;29;20128;-72
2024/02/08 05:50:45;;;;;;;1.40;1.30;;;;;;;7.12;100.00;99789.25;4864416;29;20486;-73
2024/02/08 05:53:15;;;;;;;2.30;2.20;;;;;;;6.94;100.00;99763.94;4864971;29;20056;-72
2024/02/08 05:55:47;;;;;;;0.77;0.77;;;;;;;7.04;100.00;99788.34;4864633;29;20053;-72
2024/02/08 05:58:19;;;;;;;0.98;0.98;;;;;;;7.57;100.00;99873.78;4870168;29;20616;-72
2024/02/08 06:01:01;;;;;;;3.90;3.70;;;;;;;7.53;100.00;99863.31;4869245;29;20053;-71
2024/02/08 06:03:33;;;;;;;5.00;3.25;;;;;;;7.16;100.00;99788.41;4870911;29;20041;-71
2024/02/08 06:06:06;;;;;;;0.40;0.40;;;;;;;7.71;100.00;99859.91;4866160;29;20581;-72
2024/02/08 06:08:42;;;;;;;0.20;0.20;;;;;;;6.96;100.00;99753.53;4871517;29;20061;-72
2024/02/08 06:11:19;;;;;;;1.65;1.45;;;;;;;7.06;100.00;99760.53;4869794;29;20128;-72
2024/02/08 06:13:58;;;;;;;0.30;0.30;;;;;;;7.64;100.00;99829.44;4864065;29;20061;-73
2024/02/08 06:16:33;;;;;;;0.30;0.30;;;;;;;7.50;100.00;99812.00;4868623;29;20568;-71
2024/02/08 06:19:02;;;;;;;0.40;0.40;;;;;;;7.68;100.00;99839.88;4869476;29;20369;-72
2024/02/08 06:21:40;;;;;;;0.40;0.40;;;;;;;7.82;100.00;99855.59;4868610;29;20692;-72
2024/02/08 06:27:13;;;;;;;0.95;0.68;;;;;;;7.83;100.00;99859.94;4869485;29;20060;-72
2024/02/08 06:29:42;;;;;;;1.70;1.67;;;;;;;7.44;100.00;99775.41;4871118;29;20065;-74
2024/02/08 06:35:20;;;;;;;6.60;3.33;;;;;;;8.09;100.00;99875.66;4869273;29;20057;-73
2024/02/08 06:37:58;;;;;;;8.25;7.75;;;;;;;7.51;100.00;99763.25;4873700;29;20084;-73
2024/02/08 06:40:36;;;;;;;0.57;0.57;;;;;;;8.09;100.00;99859.09;4868735;29;20037;-74
2024/02/08 07:37:46;;;;;;;3.72;1.60;;;;;;;9.00;100.00;99731.72;4870818;29;20600;-80
2024/02/08 07:43:34;;;;;;;0.80;0.75;;;;;;;9.71;100.00;99829.09;4871841;29;20056;-79
2024/02/08 07:45:44;;;;;;;2.15;2.05;;;;;;;10.07;100.00;99864.69;4866713;29;20057;-81
2024/02/08 07:48:13;;;;;;;0.20;0.20;;;;;;;10.17;100.00;99862.00;4873061;29;20060;-79
2024/02/08 07:50:44;;;;;;;0.20;0.20;;;;;;;9.96;100.00;99823.72;4872534;29;20057;-79
2024/02/08 07:53:19;;;;;;;6.65;3.28;;;;;;;10.31;100.00;99849.69;4872793;29;20576;-78
2024/02/08 07:55:58;;;;;;;1.20;0.93;;;;;;;10.64;100.00;99877.38;4870396;29;20067;-80
2024/02/08 07:58:27;;;;;;;0.73;0.63;;;;;;;10.77;100.00;99865.88;4854878;29;20045;-79
2024/02/08 08:00:57;;;;;;;1.45;1.05;;;;;;;10.87;100.00;99864.03;4872015;29;20698;-80
2024/02/08 08:03:26;;;;;;;2.60;2.20;;;;;;;10.83;100.00;99854.44;4872862;29;20041;-81
2024/02/08 08:05:58;;;;;;;4.50;3.35;;;;;;;11.03;100.00;99863.88;4871614;29;20077;-81
2024/02/08 08:08:32;;;;;;;15.10;4.45;;;;;;;11.03;100.00;99856.88;4873439;29;20513;-80
2024/02/08 08:11:02;;;;;;;0.25;0.20;;;;;;;10.51;100.00;99773.44;4879031;29;20085;-79
2024/02/08 08:14:06;;;;;;;0.75;0.75;;;;;;;11.12;100.00;99853.25;4870969;29;20117;-80
2024/02/08 08:16:36;;;;;;;0.30;0.30;;;;;;;10.90;100.00;99811.50;4873012;29;20037;-81
2024/02/08 08:19:08;;;;;;;12.02;4.95;;;;;;;10.66;100.00;99759.31;4868810;29;20104;-78
2024/02/08 08:21:58;;;;;;;0.40;0.40;;;;;;;11.17;100.00;99841.84;4856830;29;20056;-79
2024/02/08 08:24:27;;;;;;;2.08;1.88;;;;;;;11.19;100.00;99842.69;4853441;29;20180;-80
2024/02/08 08:27:06;;;;;;;6.72;4.13;;;;;;;11.23;100.00;99845.28;4874924;29;20056;-80
2024/02/08 08:29:43;;;;;;;3.33;3.03;;;;;;;10.91;100.00;99783.50;4872815;29;20148;-79
2024/02/08 08:37:44;;;;;;;2.83;2.47;;;;;;;11.78;100.00;99869.09;4875351;29;20079;-80
2024/02/08 08:40:23;;;;;;;4.57;3.13;;;;;;;11.26;100.00;99808.47;4873032;29;20029;-78
2024/02/08 08:42:54;;;;;;;4.20;3.38;;;;;;;11.51;100.00;99849.28;4872059;29;20865;-81
2024/02/08 08:45:21;;;;;;;3.00;2.70;;;;;;;11.69;100.00;99836.81;4871038;29;20489;-79
2024/02/08 08:47:51;;;;;;;2.58;2.35;;;;;;;11.22;100.00;99752.50;4872281;29;20128;-79
2024/02/08 08:50:19;;;;;;;3.33;3.03;;;;;;;11.38;100.00;99785.53;4872723;29;20045;-80
2024/02/08 08:52:57;;;;;;;6.82;3.20;;;;;;;11.92;100.00;99857.56;4870131;29;20055;-80
2024/02/08 08:55:23;;;;;;;4.85;4.28;;;;;;;12.12;100.00;99839.69;4870672;29;20457;-80
2024/02/08 08:58:00;;;;;;;2.53;2.10;;;;;;;12.31;100.00;99842.91;4871666;29;20041;-79
2024/02/08 09:00:36;;;;;;;2.65;2.35;;;;;;;12.42;100.00;99837.47;4871824;29;20045;-79
2024/02/08 09:03:04;;;;;;;4.03;2.13;;;;;;;12.09;100.00;99765.25;4870678;29;20098;-80
2024/02/08 09:05:31;;;;;;;1.50;1.40;;;;;;;12.11;100.00;99795.03;4872620;29;20048;-79
2024/02/08 09:07:58;;;;;;;6.03;1.85;;;;;;;12.61;100.00;99866.97;4872896;29;20049;-79
2024/02/08 09:10:24;;;;;;;3.65;2.70;;;;;;;11.92;100.00;99773.41;4870499;29;20045;-80
2024/02/08 09:13:00;;;;;;;3.80;3.50;;;;;;;12.65;100.00;99869.53;4876419;29;20043;-78
2024/02/08 09:15:48;;;;;;;7.28;2.38;;;;;;;12.83;100.00;99864.81;4876781;29;20140;-77
2024/02/08 09:18:15;;;;;;;4.00;3.30;;;;;;;12.57;100.00;99788.94;4874239;29;20832;-79
2024/02/08 09:20:42;;;;;;;1.67;1.58;;;;;;;12.83;100.00;99863.06;4871798;29;20128;-79
2024/02/08 09:23:17;;;;;;;3.58;3.28;;;;;;;12.93;100.00;99870.81;4870665;29;20053;-78
2024/02/08 09:25:47;;;;;;;3.50;2.13;;;;;;;12.88;100.00;99850.69;4872339;29;20049;-79
2024/02/08 09:28:35;;;;;;;4.15;1.88;;;;;;;12.97;100.00;99859.28;4870713;29;20110;-78
2024/02/08 09:31:12;;;;;;;5.82;3.25;;;;;;;12.45;100.00;99747.94;4870819;29;20056;-79
2024/02/08 09:34:00;;;;;;;2.38;2.05;;;;;;;13.22;100.00;99872.88;4872063;29;20461;-79
2024/02/08 09:36:26;;;;;;;3.58;2.63;;;;;;;12.58;100.00;99761.75;4869276;29;20101;-81
2024/02/08 09:38:52;;;;;;;2.00;1.90;;;;;;;13.13;100.00;99868.66;4870314;29;20128;-81
2024/02/08 09:41:25;;;;;;;2.15;1.95;;;;;;;13.16;100.00;99846.63;4853762;29;20057;-79
2024/02/08 09:44:00;;;;;;;3.28;2.83;;;;;;;12.74;100.00;99788.66;4870341;29;20065;-79
2024/02/08 09:46:49;;;;;;;2.95;2.75;;;;;;;13.23;100.00;99856.19;4869524;29;20044;-80
2024/02/08 09:49:16;;;;;;;5.22;4.72;;;;;;;12.94;100.00;99780.38;4873058;29;20037;-80
2024/02/08 09:51:52;;;;;;;2.60;1.92;;;;;;;13.49;100.00;99858.31;4875375;29;20045;-79
2024/02/08 09:54:30;;;;;;;4.60;4.20;;;;;;;13.47;100.00;99860.97;4875273;29;20564;-80
2024/02/08 09:57:31;;;;;;;1.38;1.23;;;;;;;13.47;100.00;99824.06;4859074;29;20136;-80
2024/02/08 09:59:59;;;;;;;2.80;2.60;;;;;;;13.26;100.00;99767.41;4864485;29;20139;-79
2024/02/08 10:02:37;;;;;;;2.15;1.95;;;;;;;13.79;100.00;99853.25;4875187;29;20060;-80
2024/02/08 10:05:19;;;;;;;5.25;3.38;;;;;;;13.92;100.00;99850.31;4872871;29;20525;-80
2024/02/08 10:08:05;;;;;;;2.63;2.42;;;;;;;13.43;100.00;99740.69;4876165;29;20180;-79
2024/02/08 10:10:43;;;;;;;3.05;2.28;;;;;;;13.88;100.00;99840.78;4871316;29;20029;-81
2024/02/08 10:13:25;;;;;;;4.28;3.45;;;;;;;13.49;100.00;99776.63;4872624;29;20053;-80
2024/02/08 10:15:55;;;;;;;2.08;1.88;;;;;;;13.77;100.00;99834.00;4874293;29;20131;-80
2024/02/08 10:18:37;;;;;;;2.08;1.95;;;;;;;13.48;100.00;99735.31;4871109;29;20037;-80
2024/02/08 10:21:17;;;;;;;4.85;4.32;;;;;;;13.43;100.00;99745.13;4878777;29;20502;-79
2024/02/08 10:24:11;;;;;;;4.85;3.90;;;;;;;14.00;100.00;99768.41;4873108;29;20041;-80
2024/02/08 10:26:45;;;;;;;2.58;2.38;;;;;;;14.26;100.00;99830.22;4871854;29;20060;-79
2024/02/08 10:29:14;;;;;;;3.90;2.58;;;;;;;14.06;100.00;99810.44;4871819;29;20120;-82
2024/02/08 10:31:40;;;;;;;3.33;2.85;;;;;;;13.62;100.00;99706.88;4873227;29;20049;-82
2024/02/08 10:34:08;;;;;;;2.95;1.88;;;;;;;14.23;100.00;99814.44;4875099;29;20040;-79
2024/02/08 10:36:39;;;;;;;3.60;3.08;;;;;;;14.41;100.00;99802.56;4874787;29;20053;-79
2024/02/08 10:39:23;;;;;;;6.70;4.03;;;;;;;14.26;100.00;99790.63;4857413;29;20827;-80
2024/02/08 10:44:29;;;;;;;4.10;2.92;;;;;;;14.55;100.00;99795.19;4874938;29;20060;-81
2024/02/08 10:47:09;;;;;;;3.20;2.90;;;;;;;14.61;100.00;99754.53;4870745;29;20486;-80
2024/02/08 10:49:44;;;;;;;1.38;1.27;;;;;;;14.35;100.00;99685.69;4874038;29;20640;-77
2024/02/08 10:52:12;;;;;;;3.28;2.25;;;;;;;14.59;100.00;99680.66;4874598;29;20033;-80
2024/02/08 10:54:42;;;;;;;3.15;2.08;;;;;;;14.92;100.00;99775.69;4880675;29;20045;-81
2024/02/08 10:59:59;;;;;;;7.22;3.60;;;;;;;15.23;98.60;99735.16;4877309;29;20105;-79
2024/02/08 11:02:35;;;;;;;0.45;0.40;;;;;;;14.93;98.20;99685.81;4855305;29;20494;-80
2024/02/08 11:05:21;;;;;;;2.95;2.67;;;;;;;15.03;98.20;99763.06;4870559;29;20144;-79
2024/02/08 11:07:48;;;;;;;1.60;1.50;;;;;;;15.03;98.47;99733.09;4873203;29;20037;-78
2024/02/08 11:10:20;;;;;;;11.48;3.63;;;;;;;15.18;97.13;99730.88;4873481;29;20033;-79
2024/02/08 11:12:49;;;;;;;3.83;2.20;;;;;;;15.04;97.00;99664.38;4873141;29;20092;-80
2024/02/08 11:15:30;;;;;;;1.42;1.20;;;;;;;15.80;93.62;99729.00;4869978;29;20053;-80
2024/02/08 11:17:57;;;;;;;2.58;2.38;;;;;;;15.76;91.64;99733.53;4856883;29;20077;-79
2024/02/08 11:20:38;;;;;;;3.40;2.28;;;;;;;15.75;88.03;99660.38;4871302;29;20494;-82
2024/02/08 11:23:12;;;;;;;2.67;2.28;;;;;;;16.19;86.90;99718.88;4870623;29;20505;-79
2024/02/08 11:25:44;;;;;;;8.70;2.22;;;;;;;16.44;86.02;99725.97;4856269;29;20053;-80
2024/02/08 11:28:13;;;;;;;0.65;0.55;;;;;;;16.75;83.13;99720.44;4873143;29;20037;-81
2024/02/08 11:30:40;;;;;;;4.28;2.60;;;;;;;17.02;78.05;99720.34;4856892;29;20520;-80
2024/02/08 11:33:12;;;;;;;1.08;1.00;;;;;;;17.02;76.88;99738.91;4873262;29;20081;-80
2024/02/08 11:35:57;;;;;;;2.90;2.28;;;;;;;16.88;76.79;99716.44;4871209;29;20140;-80
2024/02/08 11:38:27;;;;;;;2.17;1.98;;;;;;;16.97;77.61;99722.31;4863292;29;20173;-80
2024/02/08 11:40:57;;;;;;;1.73;1.25;;;;;;;17.08;73.48;99734.25;4874469;29;20061;-80
2024/02/08 11:43:24;;;;;;;10.35;2.55;;;;;;;16.79;75.30;99732.69;4874956;29;20037;-79
2024/02/08 11:45:52;;;;;;;0.30;0.30;;;;;;;16.33;73.96;99640.75;4875650;29;20044;-79
2024/02/08 11:48:31;;;;;;;1.10;0.93;;;;;;;16.66;74.85;99731.34;4869676;29;20465;-80
2024/02/08 11:51:11;;;;;;;1.65;1.48;;;;;;;16.23;75.49;99672.84;4871853;29;20045;-78
2024/02/08 11:53:39;;;;;;;1.70;1.60;;;;;;;16.56;74.54;99725.53;4871660;29;20140;-80
2024/02/08 11:56:12;;;;;;;2.17;2.08;;;;;;;16.49;74.27;99715.22;4850981;29;20164;-80
2024/02/08 11:58:43;;;;;;;1.23;1.05;;;;;;;15.98;74.51;99622.53;4871118;29;20532;-79
2024/02/08 12:01:13;;;;;;;4.25;0.93;;;;;;;16.45;74.70;99706.50;4873818;29;20091;-81
2024/02/08 12:03:42;;;;;;;1.15;0.68;;;;;;;16.40;73.17;99703.16;4868035;29;20124;-80
2024/02/08 12:06:29;;;;;;;0.98;0.88;;;;;;;16.15;73.89;99697.84;4872669;29;20049;-81
2024/02/08 12:09:02;;;;;;;4.15;1.13;;;;;;;16.14;74.88;99690.84;4861063;29;20057;-80
2024/02/08 12:11:32;;;;;;;1.25;1.10;;;;;;;16.22;73.82;99657.00;4872655;29;20052;-80
2024/02/08 12:14:01;;;;;;;2.10;1.88;;;;;;;16.40;71.87;99711.97;4872380;29;20060;-80
2024/02/08 12:16:27;;;;;;;9.95;1.30;;;;;;;16.09;73.83;99685.69;4869518;29;20093;-81
2024/02/08 12:19:05;;;;;;;0.45;0.43;;;;;;;16.25;71.51;99704.56;4872311;29;20033;-80
2024/02/08 12:21:37;;;;;;;1.55;1.45;;;;;;;16.34;69.95;99701.59;4870023;29;20402;-79
2024/02/08 12:24:02;;;;;;;1.65;1.08;;;;;;;16.08;69.78;99661.94;4869540;29;20772;-81
2024/02/08 12:26:31;;;;;;;1.13;1.08;;;;;;;16.23;69.65;99690.53;4870794;29;20095;-80
2024/02/08 12:29:02;;;;;;;1.20;1.10;;;;;;;16.22;69.71;99702.91;4871787;29;20049;-79
2024/02/08 12:31:29;;;;;;;3.65;1.63;;;;;;;16.08;69.56;99681.31;4871281;29;20112;-80
2024/02/08 12:34:03;;;;;;;0.60;0.60;;;;;;;15.81;69.40;99606.41;4871430;29;20128;-80
2024/02/08 12:36:31;;;;;;;1.45;1.35;;;;;;;16.21;69.51;99692.34;4872456;29;20045;-80
2024/02/08 12:39:00;;;;;;;1.70;1.55;;;;;;;15.65;69.53;99579.59;4872270;29;20055;-79
2024/02/08 12:41:29;;;;;;;0.60;0.60;;;;;;;16.34;68.03;99675.13;4870813;29;20049;-80
2024/02/08 12:43:57;;;;;;;3.08;2.00;;;;;;;16.27;68.14;99660.34;4853997;29;20148;-81
2024/02/08 12:46:23;;;;;;;1.58;1.23;;;;;;;16.01;68.57;99616.28;4872506;29;20033;-81
2024/02/08 12:48:49;;;;;;;0.60;0.60;;;;;;;15.75;69.74;99596.03;4855408;29;20043;-81
2024/02/08 12:51:23;;;;;;;1.88;1.73;;;;;;;16.52;68.89;99675.38;4872355;29;20136;-81
2024/02/08 12:54:02;;;;;;;2.72;1.67;;;;;;;15.85;68.64;99584.22;4871683;29;20072;-79
2024/02/08 12:56:27;;;;;;;0.68;0.68;;;;;;;15.91;67.49;99572.56;4871085;29;20077;-81
2024/02/08 12:59:03;;;;;;;0.38;0.38;;;;;;;16.62;67.18;99672.34;4869619;29;20057;-79
2024/02/08 13:01:39;;;;;;;1.27;0.73;;;;;;;16.16;67.57;99606.94;4861003;29;20504;-78
2024/02/08 13:04:06;;;;;;;1.02;0.93;;;;;;;16.21;65.28;99613.78;4868045;29;20144;-78
2024/02/08 13:06:32;;;;;;;1.42;1.02;;;;;;;16.22;64.45;99601.41;4871031;29;20041;-80
2024/02/08 13:09:16;;;;;;;0.47;0.47;;;;;;;15.90;64.77;99560.25;4855238;29;20490;-80
2024/02/08 13:11:44;;;;;;;0.63;0.63;;;;;;;16.06;64.19;99611.72;4871959;29;20078;-79
2024/02/08 13:14:14;;;;;;;1.98;1.77;;;;;;;16.06;64.24;99602.88;4871156;29;20045;-78
2024/02/08 13:16:40;;;;;;;0.32;0.30;;;;;;;15.94;63.93;99583.00;4869492;29;20059;-79
2024/02/08 13:19:05;;;;;;;1.20;0.90;;;;;;;15.99;62.76;99568.72;4877385;29;20046;-81
2024/02/08 13:21:31;;;;;;;2.38;1.95;;;;;;;16.59;61.96;99669.78;4869281;29;20048;-80
2024/02/08 13:23:57;;;;;;;1.65;1.55;;;;;;;15.98;61.90;99595.22;4877105;29;20057;-81
2024/02/08 13:26:22;;;;;;;0.88;0.73;;;;;;;16.03;61.92;99572.09;4868787;29;20466;-78
2024/02/08 13:28:48;;;;;;;0.30;0.30;;;;;;;16.55;60.69;99659.34;4871140;29;20120;-79
2024/02/08 13:31:17;;;;;;;0.40;0.40;;;;;;;16.19;60.28;99599.75;4871589;29;20147;-80
2024/02/08 13:33:44;;;;;;;5.55;2.58;;;;;;;16.08;59.96;99595.75;4871745;29;20038;-79
2024/02/08 13:36:11;;;;;;;0.32;0.32;;;;;;;16.23;60.14;99611.09;4854620;29;20060;-81
2024/02/08 13:38:40;;;;;;;0.40;0.40;;;;;;;15.87;60.00;99569.13;4866345;29;20136;-79
2024/02/08 13:41:09;;;;;;;32.75;2.63;;;;;;;16.09;59.75;99595.72;4867200;29;20413;-80
2024/02/08 13:43:39;;;;;;;1.80;1.20;;;;;;;16.37;58.65;99640.59;4868472;29;20036;-79
2024/02/08 13:46:07;;;;;;;0.77;0.70;;;;;;;16.43;57.56;99645.63;4871976;29;20037;-79